Salvador Airport, Brazil

10:57 AM BRT on July 05, 2015 (GMT -0300)
DEP. L. E. Magalhaes International | | Change Station
CLOSE
Current Station
Airport
Location: Salvador Airport,
Elevation: 20 ft
Nearby Weather Stations

Elev 20 ft 12.91 °S, 38.33 °W | Updated -158 second ago

Scattered Clouds
Scattered Clouds
82 °F
Feels Like 87 °F
N
7
Wind Variable Wind from South

Today
High -- | Low -- °F
--% Chance of Precip.
Yesterday
High -- | Low -- °F
Precip. -- in
5:56 AM 5:19 PM
Waning Gibbous, 84% visible
Pressure 30.01 in
Visibility 6.2 miles
Clouds Scattered Clouds 1700 ft
Few 2000 ft
Scattered Clouds 7000 ft
Heat Index 87 °F
Dew Point 72 °F
Humidity 70%
Rainfall 0.00 in
Snow Depth Not available.
UV 8 out of 12
Pollen Not available.
Air Quality Not available.
Flu Activity Not available.
METAR SBSV 051400Z 19006KT 9999 SCT017 FEW020TCU SCT070 28/22 Q1016

More Conditions Fewer Conditions

Pressure 30.01 in
Visibility 6.2 miles
Clouds Scattered Clouds 1700 ft
Few 2000 ft
Scattered Clouds 7000 ft
Heat Index 87 °F
Dew Point 72 °F
Humidity 70%
Rainfall 0.00 in
Snow Depth Not available.
UV 8 out of 12
Pollen Not available.
Air Quality Not available.
Flu Activity Not available.
METAR SBSV 051400Z 19006KT 9999 SCT017 FEW020TCU SCT070 28/22 Q1016

More Conditions Fewer Conditions

10-Day Weather Forecast

×

Almanac

Astronomy

Jul. 05, 2015 Rise Set
Actual Time
Civil Twilight
Nautical Twilight
Astronomical Twilight
Moon
Length of Visible Light
Length of Day
Tomorrow will be .
, % of the Moon is Illuminated

Today's Extremes

Country Highs Country Lows

Community

WunderPhotos

Upload Photos

1,835,258 photos uploaded!

WunderBlogs® & News

Nearby

Air Quality

  Air Quality AQ Index Pollutant
Not available.

Snow Depth

Station Depth Elevation

Earthquake Activity

City Distance Mag. Time & Date
Minimum magnitude displayed is 2.5.

Coastal Water Temperatures

Place Temperature

Stations

Nearby Weather Stations

Station Location Temp. Windchill Dew Point Humidity Wind Precip. Elev Updated Type